createdAt,value
2019-01-30T00:00:27.785Z,276.93
2019-01-30T00:03:22.378Z,277.33
2019-01-30T00:06:17.244Z,263.03
2019-01-30T00:09:16.541Z,283.13
2019-01-30T00:12:11.167Z,288.23
2019-01-30T00:15:05.615Z,289.20
2019-01-30T00:18:00.497Z,321.10
2019-01-30T00:20:54.833Z,287.37
2019-01-30T00:23:49.577Z,307.07
2019-01-30T00:26:44.320Z,304.77
2019-01-30T00:29:38.925Z,317.43
2019-01-30T00:32:33.419Z,349.13
2019-01-30T00:35:27.863Z,355.93
2019-01-30T00:38:22.348Z,376.00
2019-01-30T00:41:16.855Z,355.83
2019-01-30T00:44:11.039Z,356.17
2019-01-30T00:47:15.456Z,331.37
2019-01-30T00:50:01.695Z,333.53
2019-01-30T00:52:56.277Z,314.40
2019-01-30T00:55:50.670Z,301.37
2019-01-30T00:58:45.068Z,326.20
2019-01-30T01:01:39.669Z,300.07
2019-01-30T01:04:34.516Z,319.50
2019-01-30T01:07:29.046Z,314.50
2019-01-30T01:10:23.779Z,319.83
2019-01-30T01:13:18.384Z,297.77
2019-01-30T01:16:13.035Z,302.77
2019-01-30T01:19:07.626Z,304.93
2019-01-30T01:22:03.093Z,285.23
2019-01-30T01:28:07.124Z,276.13
2019-01-30T01:31:04.459Z,300.83
2019-01-30T01:33:59.851Z,285.70
2019-01-30T01:36:55.101Z,286.27
2019-01-30T01:39:51.064Z,296.47
2019-01-30T01:42:44.886Z,315.10
2019-01-30T01:45:39.331Z,322.30
2019-01-30T01:48:34.043Z,371.67
2019-01-30T01:51:28.630Z,386.50
2019-01-30T01:54:23.301Z,383.63
2019-01-30T01:57:18.763Z,395.07
2019-01-30T02:00:16.700Z,377.23
2019-01-30T02:03:11.692Z,334.17
2019-01-30T02:06:06.133Z,320.60
2019-01-30T02:09:00.622Z,304.40
2019-01-30T02:11:55.930Z,278.37
2019-01-30T02:14:50.387Z,276.33
2019-01-30T02:17:44.860Z,253.23
2019-01-30T02:20:39.550Z,269.70
2019-01-30T02:23:34.001Z,263.73
2019-01-30T02:26:28.359Z,274.83
2019-01-30T02:29:22.759Z,258.67
2019-01-30T02:32:17.351Z,221.13
2019-01-30T02:35:11.737Z,231.03
2019-01-30T02:38:06.866Z,200.13
2019-01-30T02:41:01.667Z,183.03
2019-01-30T02:43:56.900Z,159.40
2019-01-30T02:46:51.673Z,165.47
2019-01-30T02:49:55.525Z,148.80
2019-01-30T02:52:53.846Z,137.40
2019-01-30T02:55:48.622Z,120.13
2019-01-30T02:58:43.280Z,122.57
2019-01-30T03:01:45.371Z,102.73
2019-01-30T03:04:39.918Z,113.33
2019-01-30T03:07:34.636Z,136.53
2019-01-30T03:10:29.140Z,120.47
2019-01-30T03:13:23.719Z,115.90
2019-01-30T03:16:18.537Z,105.67
2019-01-30T03:19:13.484Z,103.90
2019-01-30T03:22:08.322Z,88.43
2019-01-30T03:25:03.171Z,92.53
2019-01-30T03:27:57.999Z,79.80
2019-01-30T03:30:53.407Z,84.40
2019-01-30T03:33:49.258Z,75.20
2019-01-30T03:36:44.798Z,70.50
2019-01-30T03:39:43.934Z,86.90
2019-01-30T03:42:45.773Z,85.50
2019-01-30T03:45:54.562Z,81.23
2019-01-30T03:48:52.415Z,89.52
2019-01-30T03:51:54.580Z,112.00
2019-01-30T03:54:49.402Z,92.50
2019-01-30T03:57:45.389Z,81.67
2019-01-30T04:00:44.410Z,94.13
2019-01-30T04:03:45.122Z,96.60
2019-01-30T04:06:43.437Z,94.57
2019-01-30T04:09:38.750Z,101.27
2019-01-30T04:12:35.809Z,88.20
2019-01-30T04:15:30.448Z,74.10
2019-01-30T04:18:25.305Z,78.75
2019-01-30T04:21:23.000Z,81.23
2019-01-30T04:24:18.011Z,81.85
2019-01-30T04:27:19.617Z,67.50
2019-01-30T04:33:23.070Z,88.58
2019-01-30T04:36:18.608Z,74.47
2019-01-30T04:39:14.048Z,72.12
2019-01-30T04:42:11.970Z,72.33
2019-01-30T04:45:07.452Z,70.40
2019-01-30T04:48:07.404Z,66.47
2019-01-30T04:51:02.409Z,65.00
2019-01-30T04:53:56.952Z,66.80
2019-01-30T04:56:59.578Z,71.97
2019-01-30T04:59:54.484Z,87.45
2019-01-30T05:02:52.342Z,70.63
2019-01-30T05:05:46.794Z,69.27
2019-01-30T05:08:41.569Z,59.55
2019-01-30T05:11:55.241Z,66.87
2019-01-30T05:15:03.023Z,67.22
2019-01-30T05:17:56.208Z,65.90
2019-01-30T05:20:58.349Z,90.22
2019-01-30T05:24:06.914Z,60.17
2019-01-30T05:31:45.684Z,68.67
2019-01-30T05:34:40.955Z,76.53
2019-01-30T05:37:36.506Z,66.33
2019-01-30T05:40:42.184Z,53.68
2019-01-30T05:43:52.864Z,73.90
2019-01-30T05:47:16.700Z,58.83
2019-01-30T05:50:17.240Z,63.87
2019-01-30T05:53:12.934Z,70.47
2019-01-30T06:09:04.112Z,51.90
2019-01-30T06:12:23.977Z,59.20
2019-01-30T06:15:45.492Z,57.73
2019-01-30T06:18:52.606Z,55.12
2019-01-30T06:21:47.759Z,71.12
2019-01-30T06:25:05.215Z,52.40
2019-01-30T06:28:32.852Z,54.98
2019-01-30T06:34:50.390Z,43.25
2019-01-30T06:37:47.989Z,56.70
2019-01-30T06:41:27.124Z,50.15
2019-01-30T06:44:23.030Z,49.30
2019-01-30T06:47:29.534Z,54.10
2019-01-30T06:50:26.316Z,63.52
2019-01-30T06:53:30.204Z,44.40
2019-01-30T06:56:26.817Z,48.78
2019-01-30T06:59:22.584Z,46.98
2019-01-30T07:02:17.807Z,50.88
2019-01-30T07:05:13.807Z,42.25
2019-01-30T07:08:09.354Z,47.43
2019-01-30T07:11:10.600Z,38.95
2019-01-30T07:14:00.315Z,44.40
2019-01-30T07:17:15.248Z,45.78
2019-01-30T07:20:14.457Z,61.33
2019-01-30T07:23:13.278Z,43.87
2019-01-30T07:26:14.394Z,49.08
2019-01-30T07:29:09.056Z,42.93
2019-01-30T07:32:05.737Z,48.63
2019-01-30T07:35:05.260Z,40.48
2019-01-30T07:37:59.772Z,48.50
2019-01-30T07:40:55.108Z,48.20
2019-01-30T07:43:57.113Z,54.58
2019-01-30T07:46:52.327Z,44.98
2019-01-30T07:50:17.910Z,44.73
2019-01-30T07:53:18.300Z,46.40
2019-01-30T07:56:16.793Z,56.50
2019-01-30T07:59:11.831Z,55.17
2019-01-30T08:02:06.892Z,72.58
2019-01-30T08:05:08.055Z,52.25
2019-01-30T08:08:01.032Z,48.55
2019-01-30T08:10:56.016Z,45.58
2019-01-30T08:13:52.067Z,53.83
2019-01-30T08:16:48.059Z,56.08
2019-01-30T08:19:43.019Z,47.23
2019-01-30T08:22:44.964Z,59.13
2019-01-30T08:26:04.271Z,55.92
2019-01-30T08:28:58.982Z,47.95
2019-01-30T08:31:53.678Z,46.42
2019-01-30T08:34:50.704Z,47.90
2019-01-30T08:37:46.113Z,50.92
2019-01-30T08:40:41.240Z,50.17
2019-01-30T08:43:41.499Z,54.03
2019-01-30T08:51:07.283Z,54.10
2019-01-30T08:54:23.814Z,51.70
2019-01-30T08:57:21.612Z,60.33
2019-01-30T09:00:19.778Z,57.88
2019-01-30T09:03:15.224Z,67.60
2019-01-30T09:06:10.143Z,58.75
2019-01-30T09:09:06.145Z,61.08
2019-01-30T09:12:00.746Z,65.10
2019-01-30T09:14:55.479Z,60.75
2019-01-30T09:17:56.275Z,63.60
2019-01-30T09:20:50.673Z,54.80
2019-01-30T09:23:45.247Z,56.45
2019-01-30T09:26:40.242Z,62.93
2019-01-30T09:29:35.606Z,52.80
2019-01-30T09:32:30.486Z,56.83
2019-01-30T09:35:28.048Z,72.32
2019-01-30T09:38:23.474Z,68.83
2019-01-30T09:41:19.767Z,56.98
2019-01-30T09:44:17.447Z,58.90
2019-01-30T09:47:10.700Z,61.23
2019-01-30T09:50:07.455Z,53.83
2019-01-30T09:53:02.748Z,62.62
2019-01-30T09:55:59.747Z,62.05
2019-01-30T09:58:59.366Z,49.95
2019-01-30T10:01:52.471Z,58.13
2019-01-30T10:04:47.266Z,54.60
2019-01-30T10:07:42.329Z,59.20
2019-01-30T10:10:38.767Z,49.60
2019-01-30T10:13:34.423Z,55.55
2019-01-30T10:16:46.077Z,61.05
2019-01-30T10:20:01.544Z,53.08
2019-01-30T10:23:06.675Z,59.03
2019-01-30T10:29:05.924Z,75.92
2019-01-30T10:32:02.448Z,56.00
2019-01-30T10:41:37.281Z,59.10
2019-01-30T11:07:37.964Z,57.85
2019-01-30T11:10:37.566Z,49.03
2019-01-30T11:14:07.674Z,51.05
2019-01-30T11:17:04.052Z,62.35
2019-01-30T11:19:59.858Z,60.10
2019-01-30T11:23:06.034Z,63.35
2019-01-30T11:26:43.728Z,47.53
2019-01-30T11:43:48.056Z,66.80
2019-01-30T11:46:48.190Z,52.98
2019-01-30T11:49:53.974Z,53.00
2019-01-30T11:56:04.168Z,64.20
2019-01-30T11:59:22.517Z,52.67
2019-01-30T12:09:25.485Z,67.40
2019-01-30T12:12:19.382Z,73.42
2019-01-30T12:15:55.738Z,79.15
2019-01-30T12:18:48.030Z,69.92
2019-01-30T12:21:47.494Z,68.70
2019-01-30T12:24:59.188Z,82.30
2019-01-30T12:27:58.505Z,85.05
2019-01-30T12:30:58.747Z,89.20
2019-01-30T12:33:53.624Z,73.92
2019-01-30T12:36:48.871Z,78.83
2019-01-30T12:39:43.915Z,75.25
2019-01-30T12:42:39.123Z,76.12
2019-01-30T12:45:36.127Z,74.58
2019-01-30T12:48:31.586Z,72.50
2019-01-30T12:51:29.678Z,71.05
2019-01-30T12:58:03.582Z,85.22
2019-01-30T13:01:01.820Z,92.20
2019-01-30T13:03:56.656Z,93.25
2019-01-30T13:06:51.301Z,95.32
2019-01-30T13:09:46.384Z,107.50
2019-01-30T13:12:41.051Z,99.15
2019-01-30T13:15:35.964Z,117.42
2019-01-30T13:18:30.910Z,141.55
2019-01-30T13:21:27.453Z,126.25
2019-01-30T13:24:22.193Z,129.82
2019-01-30T13:27:17.475Z,132.20
2019-01-30T13:30:18.374Z,156.20
2019-01-30T13:33:15.404Z,181.75
2019-01-30T13:36:10.412Z,173.57
2019-01-30T13:39:05.743Z,186.20
2019-01-30T13:42:00.670Z,195.43
2019-01-30T13:44:56.016Z,176.57
2019-01-30T13:47:50.704Z,182.43
2019-01-30T13:50:45.479Z,166.77
2019-01-30T13:53:40.186Z,198.65
2019-01-30T13:56:34.544Z,220.20
2019-01-30T13:59:29.371Z,208.23
2019-01-30T14:02:24.487Z,213.20
2019-01-30T14:05:20.025Z,217.90
2019-01-30T14:08:18.429Z,234.37
2019-01-30T14:11:13.406Z,267.65
2019-01-30T14:14:08.420Z,237.70
2019-01-30T14:17:03.919Z,184.07
2019-01-30T14:20:49.388Z,192.05
2019-01-30T14:23:45.027Z,172.60
2019-01-30T14:30:15.272Z,150.12
2019-01-30T14:33:41.588Z,167.30
2019-01-30T14:37:09.472Z,154.68
2019-01-30T14:40:03.758Z,148.00
2019-01-30T14:42:58.583Z,145.65
2019-01-30T14:45:53.008Z,141.40
2019-01-30T14:48:47.825Z,142.05
2019-01-30T14:51:45.257Z,142.22
2019-01-30T14:54:37.683Z,138.77
2019-01-30T14:57:32.320Z,138.85
2019-01-30T15:00:30.434Z,160.95
2019-01-30T15:03:25.277Z,127.20
2019-01-30T15:06:19.915Z,157.93
2019-01-30T15:09:15.431Z,150.68
2019-01-30T15:12:10.370Z,132.07
2019-01-30T15:15:05.383Z,155.00
2019-01-30T15:18:00.466Z,148.40
2019-01-30T15:20:57.552Z,124.18
2019-01-30T15:23:52.416Z,146.55
2019-01-30T15:26:47.100Z,140.22
2019-01-30T15:29:41.945Z,147.15
2019-01-30T15:32:36.371Z,161.07
2019-01-30T15:35:33.765Z,163.45
2019-01-30T15:38:26.534Z,157.82
2019-01-30T15:41:21.391Z,160.70
2019-01-30T15:44:16.841Z,157.65
2019-01-30T15:47:11.555Z,164.62
2019-01-30T15:50:06.894Z,146.62
2019-01-30T15:53:03.744Z,152.22
2019-01-30T15:55:58.772Z,147.95
2019-01-30T15:58:53.901Z,145.32
2019-01-30T16:01:50.012Z,155.52
2019-01-30T16:04:44.427Z,133.55
2019-01-30T16:07:39.051Z,155.95
2019-01-30T16:10:33.892Z,141.40
2019-01-30T16:13:29.076Z,148.40
2019-01-30T16:16:23.782Z,148.90
2019-01-30T16:19:18.365Z,154.35
2019-01-30T16:22:13.302Z,165.28
2019-01-30T16:25:09.461Z,152.53
2019-01-30T16:28:03.981Z,173.45
2019-01-30T16:30:59.308Z,172.68
2019-01-30T16:33:54.082Z,194.32
2019-01-30T16:36:49.306Z,210.90
2019-01-30T16:39:44.469Z,162.75
2019-01-30T16:42:39.706Z,174.82
2019-01-30T16:45:36.152Z,184.45
2019-01-30T16:48:31.130Z,194.97
2019-01-30T16:51:25.870Z,208.13
2019-01-30T16:54:21.487Z,207.57
2019-01-30T16:57:16.550Z,204.75
2019-01-30T17:00:14.526Z,173.05
2019-01-30T17:03:09.472Z,170.47
2019-01-30T17:06:07.439Z,178.45
2019-01-30T17:08:59.445Z,157.55
2019-01-30T17:11:55.072Z,160.05
2019-01-30T17:14:49.851Z,148.70
2019-01-30T17:17:45.007Z,149.27
2019-01-30T17:20:41.148Z,162.92
2019-01-30T17:23:36.238Z,168.17
2019-01-30T17:26:31.259Z,163.20
2019-01-30T17:29:29.336Z,178.65
2019-01-30T17:32:24.169Z,162.35
2019-01-30T17:35:19.270Z,165.62
2019-01-30T17:38:14.662Z,156.82
2019-01-30T17:41:09.798Z,150.60
2019-01-30T17:44:03.993Z,142.62
2019-01-30T17:46:58.597Z,122.13
2019-01-30T17:49:52.919Z,135.63
2019-01-30T17:52:47.052Z,128.60
2019-01-30T17:55:41.460Z,138.07
2019-01-30T17:58:36.192Z,126.72
2019-01-30T18:01:30.601Z,123.60
2019-01-30T18:04:25.300Z,114.52
2019-01-30T18:07:22.668Z,95.53
2019-01-30T18:10:17.900Z,115.75
2019-01-30T18:13:12.598Z,107.85
2019-01-30T18:16:07.181Z,92.62
2019-01-30T18:19:01.786Z,93.30
2019-01-30T18:21:56.540Z,105.50
2019-01-30T18:24:51.217Z,100.87
2019-01-30T18:27:45.890Z,95.03
2019-01-30T18:30:40.575Z,85.75
2019-01-30T18:33:35.544Z,82.53
2019-01-30T18:36:40.335Z,83.80
2019-01-30T18:39:24.927Z,86.63
2019-01-30T18:42:19.641Z,68.90
2019-01-30T18:45:16.671Z,97.17
2019-01-30T18:48:11.393Z,79.58
2019-01-30T18:51:05.728Z,86.47
2019-01-30T18:54:00.594Z,88.42
2019-01-30T18:56:55.892Z,78.85
2019-01-30T18:59:50.471Z,80.77
2019-01-30T19:02:44.945Z,84.62
2019-01-30T19:05:39.443Z,78.17
2019-01-30T19:08:33.907Z,85.72
2019-01-30T19:11:28.965Z,84.67
2019-01-30T19:14:23.678Z,90.25
2019-01-30T19:17:18.035Z,73.80
2019-01-30T19:20:14.978Z,76.72
2019-01-30T19:23:12.445Z,83.87
2019-01-30T19:26:07.122Z,93.52
2019-01-30T19:29:01.420Z,83.65
2019-01-30T19:31:56.134Z,78.00
2019-01-30T19:34:50.572Z,77.25
2019-01-30T19:37:45.025Z,86.67
2019-01-30T19:40:39.727Z,79.22
2019-01-30T19:43:34.382Z,86.85
2019-01-30T19:46:28.991Z,83.33
2019-01-30T19:49:23.515Z,76.50
2019-01-30T19:52:17.998Z,80.72
2019-01-30T19:55:12.656Z,84.55
2019-01-30T19:58:07.367Z,79.30
2019-01-30T20:01:02.463Z,102.17
2019-01-30T20:03:56.614Z,95.42
2019-01-30T20:06:51.157Z,85.70
2019-01-30T20:09:45.523Z,75.73
2019-01-30T20:12:40.057Z,78.80
2019-01-30T20:15:34.874Z,90.47
2019-01-30T20:18:29.337Z,88.07
2019-01-30T20:21:23.690Z,84.17
2019-01-30T20:24:18.019Z,78.83
2019-01-30T20:27:12.376Z,84.75
2019-01-30T20:30:07.316Z,80.33
2019-01-30T20:33:02.072Z,89.17
2019-01-30T20:35:56.381Z,80.00
2019-01-30T20:38:51.133Z,78.62
2019-01-30T20:41:45.587Z,77.10
2019-01-30T20:44:40.218Z,82.50
2019-01-30T20:47:34.956Z,82.60
2019-01-30T20:50:31.444Z,83.20
2019-01-30T20:53:25.832Z,84.92
2019-01-30T20:56:20.266Z,80.63
2019-01-30T20:59:14.796Z,77.17
2019-01-30T21:02:10.174Z,70.50
2019-01-30T21:05:04.893Z,68.17
2019-01-30T21:08:03.025Z,84.53
2019-01-30T21:10:57.512Z,84.97
2019-01-30T21:13:52.206Z,80.25
2019-01-30T21:16:46.462Z,77.20
2019-01-30T21:19:41.102Z,70.97
2019-01-30T21:22:35.340Z,72.37
2019-01-30T21:25:30.149Z,66.73
2019-01-30T21:28:24.923Z,75.57
2019-01-30T21:31:19.249Z,74.47
2019-01-30T21:34:14.096Z,90.53
2019-01-30T21:37:08.538Z,76.67
2019-01-30T21:40:02.895Z,72.13
2019-01-30T21:42:57.262Z,77.20
2019-01-30T21:45:51.954Z,81.47
2019-01-30T21:48:46.385Z,88.52
2019-01-30T21:51:40.879Z,90.03
2019-01-30T21:54:35.497Z,85.17
2019-01-30T21:57:32.188Z,105.57
2019-01-30T22:00:31.262Z,147.07
2019-01-30T22:03:26.146Z,145.83
2019-01-30T22:06:20.899Z,153.87
2019-01-30T22:09:15.661Z,168.80
2019-01-30T22:12:10.419Z,154.43
2019-01-30T22:15:04.968Z,169.97
2019-01-30T22:17:59.668Z,223.00
2019-01-30T22:20:53.984Z,221.28
2019-01-30T22:23:48.624Z,265.10
2019-01-30T22:26:43.274Z,317.37
2019-01-30T22:29:38.901Z,249.63
2019-01-30T22:32:33.846Z,285.87
2019-01-30T22:35:28.247Z,255.83
2019-01-30T22:38:22.713Z,283.10
2019-01-30T22:41:17.128Z,431.13
2019-01-30T22:44:11.800Z,430.17
2019-01-30T22:47:06.375Z,431.57
2019-01-30T22:50:00.845Z,430.27
2019-01-30T22:52:55.617Z,460.37
2019-01-30T22:55:49.937Z,447.57
2019-01-30T22:58:44.304Z,428.37
2019-01-30T23:02:01.397Z,373.77
2019-01-30T23:05:17.690Z,366.40
2019-01-30T23:08:33.614Z,368.03
2019-01-30T23:12:03.848Z,356.17
2019-01-30T23:15:05.070Z,407.10
2019-01-30T23:18:54.065Z,421.87
2019-01-30T23:21:58.528Z,382.07
2019-01-30T23:25:43.852Z,470.30
2019-01-30T23:29:28.192Z,474.67
2019-01-30T23:32:54.178Z,490.17
2019-01-30T23:36:33.409Z,475.90
2019-01-30T23:40:08.784Z,452.63
2019-01-30T23:43:29.314Z,434.63
2019-01-30T23:46:43.792Z,431.57
2019-01-30T23:50:29.701Z,467.33
2019-01-30T23:53:53.753Z,485.30
2019-01-30T23:57:22.972Z,499.63
